Time;durP1;ratioP1;P1;durP2;ratioP2;P2;SDS_P1;SDS_P2;PMS_P1;PMS_P2;Temp;Humidity;BMP_temperature;BMP_pressure;BME280_temperature;BME280_humidity;BME280_pressure;Samples;Min_cycle;Max_cycle;Signal;HPM_P1;HPM_P2
2022/02/15 00:01:28;;;;;;;3.13;0.52;;;6.40;99.90;;;;;;5035256;28;20033;-76
2022/02/15 00:03:54;;;;;;;4.80;0.10;;;6.40;99.90;;;;;;5035660;28;20029;-76
2022/02/15 00:06:19;;;;;;;2.15;0.10;;;6.40;99.90;;;;;;5035450;28;20033;-76
2022/02/15 00:08:45;;;;;;;1.50;0.22;;;6.30;99.90;;;;;;5035436;28;20036;-76
2022/02/15 00:11:10;;;;;;;6.63;0.57;;;6.30;99.90;;;;;;5035532;28;20467;-77
2022/02/15 00:13:36;;;;;;;1.17;0.10;;;6.30;99.90;;;;;;5034006;28;20386;-77
2022/02/15 00:16:02;;;;;;;3.45;0.15;;;6.30;99.90;;;;;;5035139;28;20447;-76
2022/02/15 00:18:27;;;;;;;4.88;0.35;;;6.30;99.90;;;;;;5034966;28;20053;-76
2022/02/15 00:20:53;;;;;;;2.95;0.32;;;6.30;99.90;;;;;;5034978;28;20021;-77
2022/02/15 00:23:18;;;;;;;5.65;0.60;;;6.30;99.90;;;;;;5034985;28;20037;-77
2022/02/15 00:25:44;;;;;;;5.85;0.70;;;6.40;99.90;;;;;;5034211;28;20025;-77
2022/02/15 00:28:10;;;;;;;4.70;0.80;;;6.30;99.90;;;;;;5036051;28;20029;-77
2022/02/15 00:30:35;;;;;;;6.00;1.10;;;6.20;99.90;;;;;;5035007;28;20024;-77
2022/02/15 00:33:01;;;;;;;7.20;0.77;;;6.20;99.90;;;;;;5035095;28;20075;-77
2022/02/15 00:35:26;;;;;;;6.45;0.80;;;6.20;99.90;;;;;;5034305;28;20030;-77
2022/02/15 00:37:52;;;;;;;7.50;1.65;;;6.10;99.90;;;;;;5033341;28;20414;-77
2022/02/15 00:40:17;;;;;;;1.38;0.52;;;6.10;99.90;;;;;;5034090;28;20021;-77
2022/02/15 00:42:43;;;;;;;2.45;0.00;;;6.10;99.90;;;;;;5034744;28;20053;-77
2022/02/15 00:45:09;;;;;;;3.42;0.10;;;6.10;99.90;;;;;;5033870;28;20029;-76
2022/02/15 00:47:35;;;;;;;3.38;0.32;;;6.10;99.90;;;;;;5033262;28;20083;-77
2022/02/15 00:50:01;;;;;;;4.60;0.00;;;6.00;99.90;;;;;;5032721;28;20033;-77
2022/02/15 00:52:27;;;;;;;3.05;0.50;;;6.00;99.90;;;;;;5033118;28;20028;-77
2022/02/15 00:54:54;;;;;;;4.93;0.10;;;6.00;99.90;;;;;;5032808;28;20112;-77
2022/02/15 00:57:21;;;;;;;5.70;1.33;;;6.00;99.90;;;;;;5034894;28;20064;-77
2022/02/15 00:59:47;;;;;;;2.63;0.20;;;6.00;99.90;;;;;;5034300;28;20537;-77
2022/02/15 01:02:13;;;;;;;1.95;0.15;;;6.00;99.90;;;;;;5034144;28;20030;-77
2022/02/15 01:04:38;;;;;;;4.85;0.20;;;6.00;99.90;;;;;;5032545;28;20092;-77
2022/02/15 01:07:04;;;;;;;9.48;0.50;;;6.00;99.90;;;;;;5034425;28;20094;-77
2022/02/15 01:09:30;;;;;;;2.25;0.13;;;5.90;99.90;;;;;;5034117;28;20044;-76
2022/02/15 01:11:55;;;;;;;6.15;0.28;;;5.90;99.90;;;;;;5034212;28;20029;-77
2022/02/15 01:14:21;;;;;;;1.13;0.25;;;5.90;99.90;;;;;;5033509;28;20060;-77
2022/02/15 01:16:46;;;;;;;6.43;0.40;;;5.80;99.90;;;;;;5034794;28;20459;-77
2022/02/15 01:19:12;;;;;;;4.50;0.98;;;5.90;99.90;;;;;;5033791;28;20127;-76
2022/02/15 01:21:38;;;;;;;3.03;0.45;;;5.90;99.90;;;;;;5032726;28;20379;-76
2022/02/15 01:24:04;;;;;;;3.90;0.77;;;5.80;99.90;;;;;;5032452;28;20744;-76
2022/02/15 01:26:29;;;;;;;4.05;0.70;;;5.80;99.90;;;;;;5033662;28;20395;-77
2022/02/15 01:28:55;;;;;;;4.72;0.82;;;5.80;99.90;;;;;;5034288;28;20029;-77
2022/02/15 01:31:20;;;;;;;8.55;1.23;;;5.80;99.90;;;;;;5032413;28;20025;-77
2022/02/15 01:33:46;;;;;;;6.65;0.93;;;5.80;99.90;;;;;;5031013;28;20057;-76
2022/02/15 01:36:11;;;;;;;4.00;0.93;;;5.80;99.90;;;;;;5012719;28;20029;-76
2022/02/15 01:38:37;;;;;;;0.90;0.40;;;5.80;99.90;;;;;;5014215;28;20022;-77
2022/02/15 01:41:06;;;;;;;5.20;0.57;;;5.80;99.90;;;;;;5012657;28;20385;-77
2022/02/15 01:43:37;;;;;;;5.07;0.68;;;5.80;99.90;;;;;;5013798;28;20030;-76
2022/02/15 01:46:02;;;;;;;5.35;0.57;;;5.80;99.90;;;;;;5027426;28;20623;-76
2022/02/15 01:48:28;;;;;;;3.03;0.57;;;5.70;99.90;;;;;;5013781;28;20050;-76
2022/02/15 01:50:58;;;;;;;7.95;1.60;;;5.70;99.90;;;;;;5014286;28;20033;-76
2022/02/15 01:53:24;;;;;;;2.13;0.82;;;5.80;99.90;;;;;;5012608;28;20030;-76
2022/02/15 01:55:50;;;;;;;4.07;1.40;;;5.60;99.90;;;;;;5030287;28;20028;-77
2022/02/15 01:58:17;;;;;;;4.13;1.08;;;5.70;99.90;;;;;;5033436;28;20025;-77
2022/02/15 02:00:42;;;;;;;3.30;1.00;;;5.70;99.90;;;;;;5033511;28;20014;-77
2022/02/15 02:03:08;;;;;;;4.60;0.90;;;5.70;99.90;;;;;;5032543;28;20025;-76
2022/02/15 02:08:09;;;;;;;7.20;1.08;;;5.80;99.90;;;;;;5038900;28;20057;-86
2022/02/15 02:10:35;;;;;;;3.75;0.80;;;5.80;99.90;;;;;;5028434;28;20059;-85
2022/02/15 02:13:01;;;;;;;3.65;0.82;;;5.80;99.90;;;;;;5061070;28;20021;-87
2022/02/15 02:15:27;;;;;;;2.90;0.93;;;5.90;99.90;;;;;;5055654;28;20312;-86
2022/02/15 02:17:53;;;;;;;4.15;1.45;;;5.90;99.90;;;;;;5044016;28;20029;-87
2022/02/15 02:20:20;;;;;;;3.92;0.82;;;5.90;99.90;;;;;;5039733;28;20026;-87
2022/02/15 02:22:46;;;;;;;7.10;1.02;;;;;;;;;;5040632;28;20024;-88
2022/02/15 02:25:17;;;;;;;3.70;1.08;;;6.00;99.90;;;;;;5056313;28;20029;-86
2022/02/15 02:27:43;;;;;;;3.55;0.93;;;5.30;99.90;;;;;;5058156;28;20021;-86
2022/02/15 02:30:09;;;;;;;6.07;1.75;;;9.20;99.90;;;;;;5054173;28;20029;-85
2022/02/15 02:32:35;;;;;;;5.28;0.90;;;6.10;99.90;;;;;;5038412;28;20034;-85
2022/02/15 02:35:04;;;;;;;2.13;0.60;;;10.10;99.90;;;;;;5037963;28;20104;-86
2022/02/15 02:37:29;;;;;;;5.70;0.73;;;6.10;99.90;;;;;;5036927;28;20017;-86
2022/02/15 02:39:55;;;;;;;4.18;0.70;;;5.60;99.90;;;;;;5046989;28;20498;-87
2022/02/15 02:42:26;;;;;;;4.97;0.82;;;6.20;99.90;;;;;;5065106;28;20025;-86
2022/02/15 02:44:53;;;;;;;3.28;1.30;;;9.30;99.90;;;;;;5063386;28;20059;-86
2022/02/15 02:47:26;;;;;;;2.22;0.88;;;6.40;99.90;;;;;;5058578;28;20024;-87
2022/02/15 02:49:53;;;;;;;4.75;1.10;;;;;;;;;;5057430;28;20025;-87
2022/02/15 02:52:19;;;;;;;4.60;1.23;;;6.20;99.90;;;;;;5036944;28;20044;-86
2022/02/15 02:54:45;;;;;;;5.07;1.10;;;;;;;;;;5037710;28;20022;-86
2022/02/15 02:57:12;;;;;;;2.58;1.17;;;6.20;99.90;;;;;;5034608;28;20026;-86
2022/02/15 02:59:40;;;;;;;6.75;1.95;;;5.50;99.90;;;;;;5037175;28;20497;-86
2022/02/15 03:02:06;;;;;;;7.10;1.35;;;6.40;99.90;;;;;;5038492;28;20112;-86
2022/02/15 03:04:32;;;;;;;6.70;1.63;;;6.10;99.90;;;;;;5035710;28;20020;-88
2022/02/15 03:06:57;;;;;;;6.88;2.88;;;6.30;99.90;;;;;;5035696;28;20112;-87
2022/02/15 03:09:23;;;;;;;9.18;2.15;;;6.30;99.90;;;;;;5036631;28;20018;-88
2022/02/15 03:11:50;;;;;;;3.97;1.33;;;6.30;99.90;;;;;;5036355;28;20049;-87
2022/02/15 03:14:16;;;;;;;8.38;1.73;;;6.10;99.90;;;;;;5039162;28;20029;-87
2022/02/15 03:16:41;;;;;;;9.60;2.10;;;6.10;99.90;;;;;;5040928;28;20124;-87
2022/02/15 03:19:08;;;;;;;4.93;1.65;;;;;;;;;;5043125;28;20589;-86
2022/02/15 03:21:33;;;;;;;9.25;1.42;;;;;;;;;;5040068;28;20033;-87
2022/02/15 03:23:59;;;;;;;5.30;1.27;;;6.20;99.90;;;;;;5056431;28;20025;-86
2022/02/15 03:26:25;;;;;;;4.05;1.40;;;6.00;99.90;;;;;;5040419;28;20025;-87
2022/02/15 03:28:51;;;;;;;4.35;1.35;;;6.10;99.90;;;;;;5040257;28;20397;-87
2022/02/15 03:31:17;;;;;;;5.47;1.25;;;6.20;99.90;;;;;;5039979;28;20031;-87
2022/02/15 03:33:42;;;;;;;6.13;1.15;;;6.20;99.90;;;;;;5044146;28;20089;-85
2022/02/15 03:36:08;;;;;;;7.45;1.30;;;6.30;99.90;;;;;;5058181;28;20056;-86
2022/02/15 03:38:34;;;;;;;7.28;1.85;;;6.20;99.90;;;;;;5060474;28;20035;-87
2022/02/15 03:43:51;;;;;;;8.18;1.42;;;6.00;99.90;;;;;;5018172;28;20541;-87
2022/02/15 03:46:17;;;;;;;3.70;1.13;;;6.20;99.90;;;;;;5040342;28;20116;-87
2022/02/15 03:48:42;;;;;;;8.20;1.08;;;6.20;99.90;;;;;;5058458;28;20074;-86
2022/02/15 03:51:08;;;;;;;5.57;2.10;;;8.30;99.90;;;;;;5053128;28;20030;-88
2022/02/15 03:53:34;;;;;;;5.32;1.95;;;6.30;99.90;;;;;;5040371;28;20033;-87
2022/02/15 03:55:59;;;;;;;7.30;1.60;;;9.10;99.90;;;;;;5040719;28;20108;-88
2022/02/15 03:58:25;;;;;;;7.05;1.30;;;6.10;99.90;;;;;;5041566;28;20021;-86
2022/02/15 04:00:51;;;;;;;11.57;1.75;;;6.20;99.90;;;;;;5040666;28;20021;-86
2022/02/15 04:03:17;;;;;;;4.93;1.02;;;6.20;99.90;;;;;;5038382;28;20018;-86
2022/02/15 04:05:42;;;;;;;11.77;2.58;;;6.20;99.90;;;;;;5042745;28;20017;-87
2022/02/15 04:08:08;;;;;;;5.05;1.15;;;5.80;99.90;;;;;;5044222;28;20049;-87
2022/02/15 04:10:34;;;;;;;12.30;1.95;;;6.30;99.90;;;;;;5063256;28;20021;-88
2022/02/15 04:12:59;;;;;;;7.45;2.20;;;6.30;99.90;;;;;;5059448;28;20032;-87
2022/02/15 04:15:25;;;;;;;8.10;1.05;;;5.90;99.90;;;;;;5040405;28;20491;-89
2022/02/15 04:17:50;;;;;;;6.55;2.13;;;5.60;99.90;;;;;;5039663;28;20029;-88
2022/02/15 04:20:16;;;;;;;4.22;1.52;;;6.10;99.90;;;;;;5039419;28;20033;-87
2022/02/15 04:22:42;;;;;;;9.77;1.70;;;6.10;99.90;;;;;;5040998;28;20029;-86
2022/02/15 04:25:09;;;;;;;12.98;1.67;;;6.20;99.90;;;;;;5042382;28;20041;-87
2022/02/15 04:27:36;;;;;;;6.50;1.95;;;6.20;99.90;;;;;;5038732;28;20022;-87
2022/02/15 04:30:03;;;;;;;9.52;1.52;;;8.00;99.90;;;;;;5038629;28;20024;-88
2022/02/15 04:32:28;;;;;;;7.60;1.35;;;6.30;99.90;;;;;;5037801;28;20036;-87
2022/02/15 04:34:54;;;;;;;5.55;0.80;;;5.60;99.90;;;;;;5048604;28;20116;-87
2022/02/15 04:37:19;;;;;;;7.85;1.55;;;6.20;99.90;;;;;;5051514;28;20025;-88
2022/02/15 04:39:46;;;;;;;3.95;1.38;;;5.60;99.90;;;;;;5045543;28;20028;-86
2022/02/15 04:42:12;;;;;;;4.95;1.30;;;6.20;99.90;;;;;;5038264;28;20014;-86
2022/02/15 04:44:38;;;;;;;5.07;1.75;;;8.80;99.90;;;;;;5037839;28;20483;-87
2022/02/15 04:47:04;;;;;;;7.80;1.58;;;6.20;99.90;;;;;;5038930;28;20120;-87
2022/02/15 04:49:30;;;;;;;7.25;1.75;;;9.30;99.90;;;;;;5042056;28;20022;-87
2022/02/15 04:51:56;;;;;;;5.93;1.20;;;8.00;99.90;;;;;;5051019;28;20035;-87
2022/02/15 04:54:22;;;;;;;6.45;1.85;;;6.30;99.90;;;;;;5064021;28;20047;-87
2022/02/15 04:56:49;;;;;;;5.63;1.10;;;6.30;99.90;;;;;;5040046;28;20018;-86
2022/02/15 04:59:15;;;;;;;8.48;2.03;;;6.10;99.90;;;;;;5039288;28;20483;-87
2022/02/15 05:01:41;;;;;;;5.93;1.48;;;;;;;;;;5041674;28;20049;-87
2022/02/15 05:04:48;;;;;;;8.48;2.45;;;6.30;99.90;;;;;;5037715;28;20040;-86
2022/02/15 05:06:52;;;;;;;5.45;1.05;;;;;;;;;;5019031;28;20062;-86
2022/02/15 05:09:18;;;;;;;9.65;1.70;;;;;;;;;;5018728;28;20038;-86
2022/02/15 05:11:44;;;;;;;8.85;1.65;;;6.30;99.90;;;;;;5021035;28;20025;-88
2022/02/15 05:14:10;;;;;;;8.30;2.28;;;;;;;;;;5030072;28;20025;-87
2022/02/15 05:16:35;;;;;;;7.18;1.52;;;6.30;99.90;;;;;;5041913;28;20029;-87
2022/02/15 05:19:01;;;;;;;6.13;1.15;;;6.20;99.90;;;;;;5047594;28;20104;-88
2022/02/15 05:21:27;;;;;;;7.30;2.42;;;6.00;99.90;;;;;;5043547;28;20033;-87
2022/02/15 05:23:53;;;;;;;11.70;2.10;;;;;;;;;;5039727;28;20017;-89
2022/02/15 05:26:18;;;;;;;8.63;1.90;;;6.40;99.90;;;;;;5042738;28;20513;-87
2022/02/15 05:28:44;;;;;;;9.50;2.53;;;6.10;99.90;;;;;;5041333;28;20407;-87
2022/02/15 05:31:09;;;;;;;8.80;2.53;;;6.20;99.90;;;;;;5039550;28;20035;-88
2022/02/15 05:33:35;;;;;;;9.13;2.85;;;6.20;99.90;;;;;;5056699;28;20121;-88
2022/02/15 05:36:01;;;;;;;6.75;2.03;;;6.10;99.90;;;;;;5058783;28;20430;-88
2022/02/15 05:38:26;;;;;;;8.45;2.28;;;6.40;99.90;;;;;;5058438;28;20078;-89
2022/02/15 05:40:52;;;;;;;9.00;2.90;;;6.40;99.90;;;;;;5049526;28;20013;-88
2022/02/15 05:43:17;;;;;;;6.32;1.60;;;6.40;99.90;;;;;;5037234;28;20378;-88
2022/02/15 05:45:44;;;;;;;15.65;1.73;;;6.40;99.90;;;;;;5036927;28;20475;-88
2022/02/15 05:48:10;;;;;;;8.02;2.22;;;6.40;99.90;;;;;;5036604;28;20021;-88
2022/02/15 05:50:51;;;;;;;13.60;2.58;;;6.30;99.90;;;;;;5037385;28;20052;-87
2022/02/15 05:53:21;;;;;;;15.05;2.00;;;6.40;99.90;;;;;;5039612;28;20040;-87
2022/02/15 05:55:52;;;;;;;9.98;2.35;;;6.50;99.90;;;;;;5038014;28;20025;-87
2022/02/15 05:58:19;;;;;;;6.22;2.10;;;6.50;99.90;;;;;;5040482;28;20029;-87
2022/02/15 06:00:45;;;;;;;10.95;2.00;;;6.50;99.90;;;;;;5039374;28;20080;-88
2022/02/15 06:05:55;;;;;;;11.15;2.05;;;6.50;99.90;;;;;;5037940;28;20091;-88
2022/02/15 06:08:21;;;;;;;6.57;1.63;;;6.50;99.90;;;;;;5053189;28;20394;-88
2022/02/15 06:10:46;;;;;;;9.52;1.85;;;6.60;99.90;;;;;;5058489;28;20024;-86
2022/02/15 06:13:15;;;;;;;7.07;1.83;;;6.60;99.90;;;;;;5057954;28;20028;-87
2022/02/15 06:15:41;;;;;;;;;;;5.10;99.90;;;;;;5039889;28;20026;-87
2022/02/15 06:18:07;;;;;;;6.72;1.48;;;6.50;99.90;;;;;;5037853;28;19936;-85
2022/02/15 06:20:32;;;;;;;9.13;1.83;;;6.60;99.90;;;;;;5039243;28;20036;-87
2022/02/15 06:22:58;;;;;;;7.90;1.77;;;6.60;99.90;;;;;;5057315;28;20021;-87
2022/02/15 06:25:24;;;;;;;10.15;1.83;;;6.60;99.90;;;;;;5038378;28;20091;-87
2022/02/15 06:27:49;;;;;;;12.68;1.77;;;6.60;99.90;;;;;;5038540;28;20079;-87
2022/02/15 06:30:15;;;;;;;7.45;1.83;;;6.50;99.90;;;;;;5038934;28;20029;-87
2022/02/15 06:32:45;;;;;;;10.32;1.67;;;6.60;99.90;;;;;;5043288;28;20088;-88
2022/02/15 06:35:12;;;;;;;9.85;2.30;;;6.70;99.90;;;;;;5058618;28;20088;-87
2022/02/15 06:37:44;;;;;;;13.40;2.22;;;9.90;99.90;;;;;;5067976;28;20059;-87
2022/02/15 06:40:12;;;;;;;10.20;1.73;;;6.70;99.90;;;;;;5060595;28;20359;-88
2022/02/15 06:42:38;;;;;;;10.85;1.63;;;6.70;99.90;;;;;;5057759;28;20108;-88
2022/02/15 06:45:04;;;;;;;19.05;2.15;;;6.50;99.90;;;;;;5059712;28;20047;-88
2022/02/15 06:47:30;;;;;;;9.02;1.48;;;6.60;99.90;;;;;;5061690;28;20028;-88
2022/02/15 06:49:56;;;;;;;15.13;1.70;;;9.50;99.90;;;;;;5067580;28;20350;-87
2022/02/15 06:52:21;;;;;;;12.30;1.50;;;10.20;99.90;;;;;;5070432;28;20367;-86
2022/02/15 06:54:47;;;;;;;12.90;1.92;;;8.40;99.90;;;;;;5061513;28;20022;-87
2022/02/15 06:57:12;;;;;;;9.82;1.80;;;9.60;99.90;;;;;;5058664;28;20378;-86
2022/02/15 06:59:38;;;;;;;10.90;1.48;;;8.70;99.90;;;;;;5059230;28;20064;-86
2022/02/15 07:02:04;;;;;;;13.98;2.17;;;6.30;99.90;;;;;;5058967;28;20117;-86
2022/02/15 07:04:30;;;;;;;10.05;1.30;;;10.20;99.90;;;;;;5059341;28;20013;-86
2022/02/15 07:06:56;;;;;;;14.43;1.48;;;6.20;99.90;;;;;;5057391;28;20068;-87
2022/02/15 07:09:22;;;;;;;5.78;1.00;;;6.30;99.90;;;;;;5058668;28;20025;-86
2022/02/15 07:11:48;;;;;;;7.22;1.25;;;9.20;99.90;;;;;;5059884;28;20048;-86
2022/02/15 07:14:14;;;;;;;6.18;1.17;;;6.20;99.90;;;;;;5058297;28;20020;-87
2022/02/15 07:16:43;;;;;;;6.32;0.95;;;6.30;99.90;;;;;;5059640;28;20050;-87
2022/02/15 07:19:08;;;;;;;;;;;6.20;99.90;;;;;;5059329;28;20021;-87
2022/02/15 07:21:34;;;;;;;8.90;0.60;;;6.20;99.90;;;;;;5059581;28;20082;-87
2022/02/15 07:24:00;;;;;;;4.93;0.90;;;6.10;99.90;;;;;;5061481;28;20336;-86
2022/02/15 07:26:25;;;;;;;10.13;1.05;;;6.00;99.90;;;;;;5059720;28;20031;-88
2022/02/15 07:28:52;;;;;;;7.53;1.48;;;6.10;99.90;;;;;;5058770;28;20086;-87
2022/02/15 07:31:18;;;;;;;6.40;0.65;;;6.10;99.90;;;;;;5059538;28;20119;-86
2022/02/15 07:33:43;;;;;;;7.53;0.50;;;6.10;99.90;;;;;;5056987;28;20052;-87
2022/02/15 07:36:09;;;;;;;12.25;1.10;;;6.00;99.90;;;;;;5056550;28;20426;-87
2022/02/15 07:38:34;;;;;;;8.68;0.60;;;6.20;99.90;;;;;;5056669;28;20021;-86
2022/02/15 07:41:00;;;;;;;6.95;0.70;;;6.30;99.90;;;;;;5058051;28;20490;-87
2022/02/15 07:43:26;;;;;;;3.92;0.40;;;6.50;99.90;;;;;;5057342;28;20048;-86
2022/02/15 07:45:52;;;;;;;5.43;0.43;;;6.60;99.90;;;;;;5057745;28;20018;-87
2022/02/15 07:48:18;;;;;;;6.50;0.60;;;6.70;99.90;;;;;;5058183;28;20086;-87
2022/02/15 07:50:44;;;;;;;6.38;0.63;;;6.80;99.90;;;;;;5058725;28;20024;-87
2022/02/15 07:53:10;;;;;;;5.20;0.65;;;6.70;99.90;;;;;;5064224;28;20071;-87
2022/02/15 07:55:36;;;;;;;11.05;1.25;;;6.70;99.90;;;;;;5074290;28;20534;-87
2022/02/15 07:58:02;;;;;;;8.98;0.80;;;6.60;99.90;;;;;;5079428;28;20013;-88
2022/02/15 08:00:28;;;;;;;8.63;1.10;;;6.70;99.90;;;;;;5073260;28;20039;-88
2022/02/15 08:02:54;;;;;;;24.95;1.35;;;6.10;99.90;;;;;;5072252;28;20085;-87
2022/02/15 08:05:21;;;;;;;9.45;1.50;;;6.00;99.90;;;;;;5064937;28;20064;-88
2022/02/15 08:07:51;;;;;;;8.57;0.40;;;6.00;99.90;;;;;;5063944;28;20537;-87
2022/02/15 08:10:20;;;;;;;8.05;1.10;;;6.50;99.90;;;;;;5062250;28;20036;-87
2022/02/15 08:13:07;;;;;;;6.07;0.73;;;10.10;99.90;;;;;;5059281;28;20024;-87
2022/02/15 08:15:36;;;;;;;10.90;1.27;;;5.90;99.90;;;;;;5061315;28;20021;-87
2022/02/15 08:18:03;;;;;;;;;;;6.70;99.90;;;;;;5061570;28;20021;-86
2022/02/15 08:20:29;;;;;;;10.05;0.60;;;10.60;99.90;;;;;;5060564;28;19952;-87
2022/02/15 08:22:55;;;;;;;8.48;1.02;;;10.20;99.90;;;;;;5063424;28;20032;-87
2022/02/15 08:25:21;;;;;;;6.03;0.85;;;6.70;99.90;;;;;;5066746;28;20044;-87
2022/02/15 08:27:47;;;;;;;9.25;0.70;;;7.10;99.90;;;;;;5048949;28;20029;-87
2022/02/15 08:30:15;;;;;;;8.45;0.63;;;9.80;99.90;;;;;;5063117;28;20029;-87
2022/02/15 08:32:40;;;;;;;7.30;2.13;;;6.80;99.90;;;;;;5060199;28;20040;-86
2022/02/15 08:35:07;;;;;;;17.70;1.77;;;10.10;99.90;;;;;;5060246;28;20481;-88
2022/02/15 08:37:33;;;;;;;9.38;1.20;;;7.00;99.90;;;;;;5061050;28;20031;-87
2022/02/15 08:40:00;;;;;;;6.38;0.90;;;7.00;99.90;;;;;;5060675;28;20080;-87
2022/02/15 08:42:26;;;;;;;8.82;1.10;;;7.00;99.90;;;;;;5059840;28;20013;-87
2022/02/15 08:44:55;;;;;;;7.43;0.80;;;7.00;99.90;;;;;;5063161;28;20017;-88
2022/02/15 08:47:21;;;;;;;;;;;7.00;99.90;;;;;;5063550;28;20021;-87
2022/02/15 08:49:50;;;;;;;5.57;0.43;;;7.00;99.90;;;;;;5069521;28;19976;-87
2022/02/15 08:52:15;;;;;;;5.78;0.98;;;7.10;99.90;;;;;;5059903;28;20024;-87
2022/02/15 08:54:41;;;;;;;9.40;1.25;;;7.10;99.90;;;;;;5062756;28;20017;-87
2022/02/15 08:57:06;;;;;;;8.18;0.75;;;7.20;99.90;;;;;;5057428;28;20025;-87
2022/02/15 08:59:32;;;;;;;8.88;1.55;;;7.20;99.90;;;;;;5060191;28;20021;-87
2022/02/15 09:01:58;;;;;;;6.20;0.93;;;7.30;99.90;;;;;;5057882;28;20017;-87
2022/02/15 09:04:23;;;;;;;9.63;1.20;;;7.30;99.90;;;;;;5061375;28;20040;-87
2022/02/15 09:06:51;;;;;;;6.72;0.73;;;7.40;99.90;;;;;;5062193;28;20047;-87
2022/02/15 09:09:18;;;;;;;9.32;0.85;;;7.40;99.90;;;;;;5058929;28;20112;-87
2022/02/15 09:11:44;;;;;;;5.72;1.42;;;7.40;99.90;;;;;;5057919;28;20027;-88
2022/02/15 09:14:09;;;;;;;7.07;0.93;;;7.40;99.90;;;;;;5058897;28;20025;-87
2022/02/15 09:16:35;;;;;;;3.40;0.25;;;9.00;99.90;;;;;;5057702;28;20017;-87
2022/02/15 09:19:01;;;;;;;6.63;0.82;;;7.40;99.90;;;;;;5060370;28;20029;-87
2022/02/15 09:21:26;;;;;;;5.22;0.30;;;7.30;99.90;;;;;;5062196;28;20021;-86
2022/02/15 09:23:52;;;;;;;11.38;0.57;;;7.30;99.90;;;;;;5061163;28;20021;-86
2022/02/15 09:26:17;;;;;;;5.80;0.63;;;7.30;99.90;;;;;;5063107;28;20036;-86
2022/02/15 09:28:43;;;;;;;9.38;1.13;;;7.30;99.90;;;;;;5063053;28;20021;-86
2022/02/15 09:31:08;;;;;;;8.20;0.45;;;7.40;99.90;;;;;;5070145;28;20024;-87
2022/02/15 09:33:34;;;;;;;8.15;1.02;;;7.40;99.90;;;;;;5070790;28;20028;-88
2022/02/15 09:36:00;;;;;;;8.63;0.65;;;7.40;99.90;;;;;;5071150;28;20025;-88
2022/02/15 09:38:25;;;;;;;11.50;0.73;;;7.40;99.90;;;;;;5069076;28;20071;-88
2022/02/15 09:40:51;;;;;;;10.05;0.80;;;7.40;99.90;;;;;;5066670;28;20025;-87
2022/02/15 09:43:17;;;;;;;2.70;0.20;;;7.30;99.90;;;;;;5070290;28;20028;-88
2022/02/15 09:45:46;;;;;;;10.27;1.48;;;7.20;99.90;;;;;;5075470;28;20009;-88
2022/02/15 09:48:14;;;;;;;9.80;1.05;;;7.00;99.90;;;;;;5074455;28;20033;-87
2022/02/15 09:50:40;;;;;;;10.82;1.05;;;10.20;99.90;;;;;;5074086;28;20005;-86
2022/02/15 09:53:06;;;;;;;9.70;1.35;;;6.60;99.90;;;;;;5074077;28;20088;-88
2022/02/15 09:55:33;;;;;;;4.82;0.95;;;6.50;99.90;;;;;;5076037;28;20029;-88
2022/02/15 09:57:58;;;;;;;6.32;0.77;;;6.50;99.90;;;;;;5075339;28;20471;-87
2022/02/15 10:00:24;;;;;;;8.25;0.80;;;8.20;99.90;;;;;;5070699;28;20009;-87
2022/02/15 10:02:50;;;;;;;3.03;0.50;;;10.50;99.90;;;;;;5073884;28;20029;-88
2022/02/15 10:05:17;;;;;;;1.50;0.30;;;6.20;99.90;;;;;;5069944;28;20043;-88
2022/02/15 10:07:57;;;;;;;3.50;0.60;;;8.10;99.90;;;;;;5068620;28;20040;-87
2022/02/15 10:10:41;;;;;;;9.18;1.35;;;6.80;99.90;;;;;;5068372;28;20462;-87
2022/02/15 10:13:13;;;;;;;7.25;0.10;;;7.00;99.90;;;;;;5059699;28;20032;-88
2022/02/15 10:15:41;;;;;;;10.13;0.80;;;7.40;99.90;;;;;;5055316;28;20025;-88
2022/02/15 10:18:07;;;;;;;1.27;0.22;;;7.70;99.90;;;;;;5056635;28;20040;-88
2022/02/15 10:20:34;;;;;;;7.07;0.52;;;8.00;99.90;;;;;;5056508;28;20471;-88
2022/02/15 10:23:20;;;;;;;3.63;0.22;;;8.30;99.90;;;;;;5059724;28;20025;-89
2022/02/15 10:25:47;;;;;;;3.60;0.20;;;8.50;99.90;;;;;;5076193;28;20574;-88
2022/02/15 10:28:19;;;;;;;5.30;0.20;;;8.60;99.90;;;;;;5058029;28;20371;-88
2022/02/15 10:30:53;;;;;;;8.00;0.50;;;8.80;99.90;;;;;;5060480;28;20029;-87
2022/02/15 10:33:27;;;;;;;9.18;0.75;;;8.90;99.90;;;;;;5070175;28;20084;-88
2022/02/15 10:36:02;;;;;;;7.60;0.00;;;8.30;99.90;;;;;;5076087;28;20128;-86
2022/02/15 10:38:39;;;;;;;4.43;0.00;;;8.50;99.90;;;;;;5074330;28;20025;-86
2022/02/15 10:41:05;;;;;;;5.25;0.35;;;8.40;99.90;;;;;;5076774;28;20032;-88
2022/02/15 10:43:43;;;;;;;3.10;0.00;;;8.20;99.90;;;;;;5064640;28;20017;-88
2022/02/15 10:46:20;;;;;;;3.75;0.30;;;8.10;99.90;;;;;;5064803;28;20471;-86
2022/02/15 10:48:46;;;;;;;6.55;0.10;;;8.20;99.90;;;;;;5070215;28;20128;-88
2022/02/15 10:51:14;;;;;;;3.65;0.00;;;10.60;99.90;;;;;;5060500;28;20017;-88
2022/02/15 10:53:40;;;;;;;2.22;0.32;;;8.40;99.90;;;;;;5068549;28;20466;-87
2022/02/15 10:56:07;;;;;;;17.95;0.95;;;8.30;99.90;;;;;;5076109;28;20033;-86
2022/02/15 10:58:33;;;;;;;9.65;0.10;;;8.40;99.90;;;;;;5075165;28;20045;-87
2022/02/15 11:01:05;;;;;;;4.85;0.00;;;12.70;99.90;;;;;;5072114;28;20433;-86
2022/02/15 11:03:33;;;;;;;5.82;0.10;;;8.80;99.90;;;;;;5064847;28;20021;-85
2022/02/15 11:05:59;;;;;;;1.38;0.00;;;8.50;99.90;;;;;;5060936;28;20071;-86
2022/02/15 11:08:27;;;;;;;2.92;0.10;;;9.00;99.90;;;;;;5060619;28;20025;-87
2022/02/15 11:11:05;;;;;;;3.28;0.75;;;8.80;99.90;;;;;;5061544;28;20360;-86
2022/02/15 11:13:34;;;;;;;5.93;0.85;;;9.50;99.90;;;;;;5060031;28;20036;-87
2022/02/15 11:16:02;;;;;;;1.50;0.00;;;;;;;;;;5060944;28;20162;-85
2022/02/15 11:18:32;;;;;;;3.63;0.45;;;9.40;99.90;;;;;;5079301;28;20140;-87
2022/02/15 11:21:01;;;;;;;2.95;0.00;;;9.20;99.90;;;;;;5069180;28;20211;-86
2022/02/15 11:23:29;;;;;;;3.78;0.40;;;11.70;99.90;;;;;;5074658;28;20029;-89
2022/02/15 11:26:11;;;;;;;2.63;0.00;;;8.30;99.90;;;;;;5063948;28;20025;-86
2022/02/15 11:28:51;;;;;;;2.75;0.00;;;12.10;99.90;;;;;;5061838;28;20111;-86
2022/02/15 11:31:49;;;;;;;1.00;0.00;;;8.80;99.90;;;;;;5063864;28;20548;-87
2022/02/15 11:34:16;;;;;;;2.00;0.00;;;8.90;99.90;;;;;;5060998;28;20397;-87
2022/02/15 11:36:50;;;;;;;0.88;0.00;;;10.50;99.90;;;;;;5062125;28;20471;-86
2022/02/15 11:39:23;;;;;;;1.80;0.47;;;9.00;99.90;;;;;;5060438;28;20509;-87
2022/02/15 11:41:52;;;;;;;4.38;0.45;;;9.00;99.90;;;;;;5061749;28;20100;-88
2022/02/15 11:44:30;;;;;;;6.20;0.10;;;9.10;99.90;;;;;;5063311;28;20028;-87
2022/02/15 11:47:15;;;;;;;1.80;0.22;;;9.20;99.90;;;;;;5070527;28;20055;-86
2022/02/15 11:49:53;;;;;;;3.20;0.63;;;9.10;99.90;;;;;;5074215;28;20020;-87
2022/02/15 11:52:19;;;;;;;1.40;0.00;;;9.00;99.90;;;;;;5070288;28;20029;-87
2022/02/15 11:54:46;;;;;;;1.50;0.00;;;;;;;;;;5074662;28;20041;-88
2022/02/15 11:57:14;;;;;;;2.17;0.22;;;9.00;99.90;;;;;;5080908;28;20033;-87
2022/02/15 11:59:40;;;;;;;2.53;0.65;;;8.80;99.90;;;;;;5060851;28;20062;-86
2022/02/15 12:02:06;;;;;;;1.77;0.10;;;8.90;99.90;;;;;;5062534;28;20103;-87
2022/02/15 12:04:32;;;;;;;5.72;0.10;;;9.00;99.90;;;;;;5058835;28;20017;-88
2022/02/15 12:07:03;;;;;;;5.15;0.00;;;9.20;99.90;;;;;;5058621;28;20032;-86
2022/02/15 12:09:30;;;;;;;0.88;0.00;;;9.40;99.90;;;;;;5061073;28;20036;-86
2022/02/15 12:11:58;;;;;;;4.40;0.20;;;10.10;99.90;;;;;;5056661;28;20033;-88
2022/02/15 12:14:25;;;;;;;4.50;0.00;;;9.30;99.90;;;;;;5059526;28;20092;-85
2022/02/15 12:16:59;;;;;;;4.15;0.85;;;9.60;99.90;;;;;;5058145;28;20013;-87
2022/02/15 12:19:31;;;;;;;2.38;0.00;;;10.40;99.90;;;;;;5057428;28;20024;-87
2022/02/15 12:21:59;;;;;;;4.18;0.00;;;9.60;99.90;;;;;;5056015;28;20668;-87
2022/02/15 12:24:26;;;;;;;3.97;0.00;;;12.60;99.90;;;;;;5054897;28;20116;-88
2022/02/15 12:26:52;;;;;;;2.20;0.00;;;9.70;99.90;;;;;;5056180;28;20115;-86
2022/02/15 12:29:18;;;;;;;2.65;0.03;;;9.80;99.90;;;;;;5055753;28;20051;-88
2022/02/15 12:31:44;;;;;;;1.52;0.43;;;10.00;99.90;;;;;;5056239;28;20021;-88
2022/02/15 12:34:13;;;;;;;1.42;0.00;;;10.00;99.90;;;;;;5056335;28;20032;-87
2022/02/15 12:36:40;;;;;;;1.42;0.30;;;10.20;99.90;;;;;;5057284;28;20028;-87
2022/02/15 12:39:06;;;;;;;3.47;0.10;;;10.20;99.90;;;;;;5056778;28;20394;-88
2022/02/15 12:41:38;;;;;;;4.85;0.00;;;10.30;99.90;;;;;;5057923;28;20021;-86
2022/02/15 12:44:05;;;;;;;1.98;0.10;;;10.10;99.90;;;;;;5057960;28;20035;-88
2022/02/15 12:46:31;;;;;;;6.85;0.15;;;10.10;99.90;;;;;;5055496;28;20052;-87
2022/02/15 12:48:59;;;;;;;1.98;0.38;;;11.30;99.90;;;;;;5055905;28;20021;-87
2022/02/15 12:51:30;;;;;;;0.82;0.15;;;9.90;99.90;;;;;;5057016;28;20021;-86
2022/02/15 12:53:56;;;;;;;1.60;0.03;;;10.00;99.90;;;;;;5055289;28;20036;-87
2022/02/15 12:56:23;;;;;;;4.60;0.00;;;10.00;99.90;;;;;;5055947;28;20017;-87
2022/02/15 12:58:52;;;;;;;4.32;0.10;;;10.20;99.90;;;;;;5054265;28;20075;-86
2022/02/15 13:01:18;;;;;;;1.33;0.00;;;10.20;99.90;;;;;;5054628;28;20013;-88
2022/02/15 13:03:51;;;;;;;3.95;0.40;;;10.30;99.90;;;;;;5056058;28;20431;-87
2022/02/15 13:06:18;;;;;;;4.03;0.22;;;9.50;99.90;;;;;;5055934;28;20032;-88
2022/02/15 13:08:51;;;;;;;5.82;0.10;;;10.10;99.90;;;;;;5056429;28;20081;-87